Time;durP1;ratioP1;P1;durP2;ratioP2;P2;SDS_P1;SDS_P2;PMS_P1;PMS_P2;Temp;Humidity;BMP_temperature;BMP_pressure;BME280_temperature;BME280_humidity;BME280_pressure;Samples;Min_cycle;Max_cycle;Signal;HPM_P1;HPM_P2
2021/11/03 00:00:10;;;;;;;82.70;36.28;;;;;;;7.29;100.00;99393.00;1733272;82;21145;-72
2021/11/03 00:02:36;;;;;;;90.47;41.00;;;;;;;7.27;100.00;99400.48;1739367;82;21636;-72
2021/11/03 00:05:03;;;;;;;94.07;41.65;;;;;;;7.26;100.00;99393.09;1747068;82;21393;-72
2021/11/03 00:07:30;;;;;;;87.37;40.25;;;;;;;7.27;100.00;99400.05;1747668;82;21584;-72
2021/11/03 00:10:01;;;;;;;88.60;41.10;;;;;;;7.25;100.00;99392.70;1747683;82;21033;-71
2021/11/03 00:12:27;;;;;;;89.13;39.55;;;;;;;7.23;100.00;99394.52;1725713;81;21516;-73
2021/11/03 00:14:54;;;;;;;86.65;40.73;;;;;;;7.26;100.00;99393.09;1756676;81;21051;-71
2021/11/03 00:17:20;;;;;;;86.65;39.00;;;;;;;7.26;100.00;99390.47;1756498;81;21037;-73
2021/11/03 00:19:46;;;;;;;99.05;44.13;;;;;;;7.28;100.00;99383.41;1756485;81;21468;-73
2021/11/03 00:22:14;;;;;;;106.37;43.42;;;;;;;7.28;100.00;99388.66;1756082;81;21083;-72
2021/11/03 00:24:42;;;;;;;100.47;45.05;;;;;;;7.27;100.00;99393.50;1755902;81;21041;-72
2021/11/03 00:27:08;;;;;;;86.25;41.45;;;;;;;7.30;100.00;99397.31;1755916;81;21048;-71
2021/11/03 00:29:36;;;;;;;94.92;41.25;;;;;;;7.29;100.00;99398.23;1755813;81;21076;-71
2021/11/03 00:32:05;;;;;;;94.95;44.30;;;;;;;7.29;100.00;99393.43;1756304;81;21445;-71
2021/11/03 00:34:32;;;;;;;102.85;45.38;;;;;;;7.30;100.00;99403.86;1756712;81;21654;-72
2021/11/03 00:36:59;;;;;;;99.50;42.00;;;;;;;7.31;100.00;99400.32;1755913;81;21044;-70
2021/11/03 00:39:26;;;;;;;96.67;43.83;;;;;;;7.31;100.00;99399.02;1756102;81;21112;-70
2021/11/03 00:41:54;;;;;;;87.70;39.13;;;;;;;7.30;100.00;99398.63;1755777;81;22185;-71
2021/11/03 00:44:22;;;;;;;87.60;37.78;;;;;;;7.30;100.00;99390.77;1756126;81;21815;-71
2021/11/03 00:46:49;;;;;;;96.67;43.08;;;;;;;7.33;100.00;99393.27;1755902;81;21092;-70
2021/11/03 00:49:17;;;;;;;107.10;45.20;;;;;;;7.34;100.00;99392.84;1756098;81;21002;-70
2021/11/03 00:51:44;;;;;;;93.07;42.85;;;;;;;7.38;100.00;99402.27;1755686;81;21584;-70
2021/11/03 00:54:11;;;;;;;101.78;43.63;;;;;;;7.38;100.00;99401.42;1756104;81;21092;-71
2021/11/03 00:56:38;;;;;;;91.53;43.05;;;;;;;7.37;100.00;99404.97;1755660;81;21112;-72
2021/11/03 00:59:04;;;;;;;82.45;37.70;;;;;;;7.37;100.00;99401.04;1756203;81;21069;-69
2021/11/03 01:01:32;;;;;;;91.70;42.90;;;;;;;7.35;100.00;99401.93;1755778;81;21002;-70
2021/11/03 01:03:59;;;;;;;83.75;37.55;;;;;;;7.36;100.00;99396.23;1749136;81;21547;-71
2021/11/03 01:06:25;;;;;;;78.33;36.70;;;;;;;7.39;100.00;99405.77;1726085;83;21071;-72
2021/11/03 01:08:52;;;;;;;86.90;37.35;;;;;;;7.39;100.00;99405.77;1725921;83;21474;-72
2021/11/03 01:11:20;;;;;;;76.55;35.25;;;;;;;7.41;100.00;99405.23;1724391;82;21299;-72
2021/11/03 01:13:46;;;;;;;92.78;40.65;;;;;;;7.41;100.00;99403.49;1707230;83;21073;-71
2021/11/03 01:16:15;;;;;;;81.60;39.67;;;;;;;7.44;100.00;99406.45;1707201;84;21056;-72
2021/11/03 01:18:43;;;;;;;73.50;35.38;;;;;;;7.44;100.00;99402.06;1707187;83;21080;-71
2021/11/03 01:21:09;;;;;;;86.57;39.63;;;;;;;7.47;100.00;99396.70;1707130;83;21158;-72
2021/11/03 01:23:37;;;;;;;82.82;38.70;;;;;;;7.48;100.00;99394.50;1706984;84;21635;-70
2021/11/03 01:26:03;;;;;;;87.97;40.15;;;;;;;7.49;100.00;99396.20;1706993;84;21598;-70
2021/11/03 01:28:30;;;;;;;72.45;35.38;;;;;;;7.51;100.00;99398.31;1707031;83;21069;-69
2021/11/03 01:30:56;;;;;;;76.50;36.95;;;;;;;7.52;100.00;99393.48;1706924;84;21077;-70
2021/11/03 01:33:23;;;;;;;79.70;37.13;;;;;;;7.52;100.00;99389.55;1707116;84;21930;-70
2021/11/03 01:35:49;;;;;;;61.90;30.50;;;;;;;7.53;100.00;99393.88;1706989;84;21073;-70
2021/11/03 01:38:16;;;;;;;69.17;32.10;;;;;;;7.53;100.00;99395.18;1723818;82;21102;-68
2021/11/03 01:40:45;;;;;;;78.12;38.33;;;;;;;7.57;100.00;99392.01;1715281;82;21069;-69
2021/11/03 01:43:35;;;;;;;75.70;36.28;;;;;;;7.56;100.00;99389.81;1689495;84;21034;-70
2021/11/03 01:46:33;;;;;;;82.82;37.95;;;;;;;7.59;100.00;99383.61;1690082;84;21113;-69
2021/11/03 01:49:15;;;;;;;76.70;36.33;;;;;;;7.61;100.00;99392.73;1707611;82;21018;-70
2021/11/03 01:51:59;;;;;;;79.80;37.85;;;;;;;7.60;100.00;99394.51;1734161;82;21046;-70
2021/11/03 01:54:35;;;;;;;76.00;35.78;;;;;;;7.59;100.00;99398.02;1734348;82;21050;-69
2021/11/03 01:57:05;;;;;;;79.40;38.05;;;;;;;7.59;100.00;99397.17;1734068;82;21050;-70
2021/11/03 01:59:35;;;;;;;79.50;37.53;;;;;;;7.59;100.00;99405.87;1734375;82;22197;-71
2021/11/03 02:02:02;;;;;;;82.95;39.42;;;;;;;7.60;100.00;99396.28;1678320;84;21073;-71
2021/11/03 02:04:30;;;;;;;84.77;38.15;;;;;;;7.63;100.00;99397.00;1665458;85;21078;-72
2021/11/03 02:06:57;;;;;;;62.05;29.32;;;;;;;7.63;100.00;99397.00;1679402;85;21077;-71
2021/11/03 02:09:24;;;;;;;79.58;38.02;;;;;;;7.63;100.00;99398.31;1679235;85;21676;-73
2021/11/03 02:11:50;;;;;;;75.72;36.05;;;;;;;7.63;100.00;99401.40;1681694;84;22210;-70
2021/11/03 02:14:18;;;;;;;80.92;38.67;;;;;;;7.62;100.00;99396.63;1699714;83;21065;-71
2021/11/03 02:16:48;;;;;;;71.22;34.43;;;;;;;7.66;100.00;99396.03;1705792;83;21072;-72
2021/11/03 02:19:19;;;;;;;91.63;40.10;;;;;;;7.67;100.00;99403.84;1663139;86;21063;-72
2021/11/03 02:22:01;;;;;;;86.60;41.90;;;;;;;7.67;100.00;99403.00;1661542;86;21320;-70
2021/11/03 02:24:43;;;;;;;77.75;35.80;;;;;;;7.65;100.00;99406.98;1662824;86;21231;-71
2021/11/03 02:27:11;;;;;;;70.03;34.45;;;;;;;7.65;100.00;99404.36;1629720;86;21108;-71
2021/11/03 02:29:38;;;;;;;84.83;39.75;;;;;;;7.66;100.00;99404.77;1636505;86;21095;-71
2021/11/03 02:32:21;;;;;;;68.25;33.10;;;;;;;7.66;100.00;99402.16;1661329;86;21084;-71
2021/11/03 02:34:47;;;;;;;84.47;38.83;;;;;;;7.65;100.00;99404.36;1637892;86;21100;-70
2021/11/03 02:37:32;;;;;;;70.60;34.50;;;;;;;7.68;100.00;99392.91;1662945;86;21458;-70
2021/11/03 02:40:18;;;;;;;83.65;38.90;;;;;;;7.67;100.00;99395.98;1661404;86;21610;-71
2021/11/03 02:42:49;;;;;;;79.92;38.80;;;;;;;7.66;100.00;99395.60;1662755;86;21112;-71
2021/11/03 02:45:26;;;;;;;82.50;39.23;;;;;;;7.64;100.00;99396.11;1661481;86;21063;-70
2021/11/03 02:47:53;;;;;;;81.35;36.83;;;;;;;7.63;100.00;99394.38;1662842;86;21066;-71
2021/11/03 02:50:20;;;;;;;74.20;36.42;;;;;;;7.62;100.00;99387.45;1661947;86;22165;-71
2021/11/03 02:52:47;;;;;;;75.40;37.10;;;;;;;7.62;100.00;99384.83;1662360;86;21057;-71
2021/11/03 02:55:14;;;;;;;80.32;37.33;;;;;;;7.63;100.00;99390.45;1662833;86;21079;-72
2021/11/03 02:57:40;;;;;;;70.37;35.13;;;;;;;7.61;100.00;99392.27;1661928;86;22135;-70
2021/11/03 03:00:12;;;;;;;74.72;36.90;;;;;;;7.61;100.00;99389.65;1661946;86;21087;-68
2021/11/03 03:02:39;;;;;;;54.05;27.98;;;;;;;7.62;100.00;99390.53;1662867;86;21421;-69
2021/11/03 03:05:07;;;;;;;71.57;33.98;;;;;;;7.62;100.00;99385.29;1661422;86;21076;-70
2021/11/03 03:07:37;;;;;;;67.97;34.08;;;;;;;7.64;100.00;99386.94;1661504;86;21367;-70
2021/11/03 03:10:09;;;;;;;72.03;36.25;;;;;;;7.66;100.00;99391.67;1663138;86;21511;-72
2021/11/03 03:12:39;;;;;;;63.87;34.18;;;;;;;7.66;100.00;99389.05;1661588;86;21047;-72
2021/11/03 03:15:07;;;;;;;67.90;34.78;;;;;;;7.67;100.00;99397.30;1662402;86;21868;-72
2021/11/03 03:17:35;;;;;;;63.58;32.20;;;;;;;7.68;100.00;99397.69;1665624;86;21021;-70
2021/11/03 03:20:03;;;;;;;55.67;27.32;;;;;;;7.69;100.00;99414.28;1664709;86;21149;-75
2021/11/03 03:22:29;;;;;;;59.48;30.85;;;;;;;7.67;100.00;99413.02;1664820;86;21073;-73
2021/11/03 03:24:57;;;;;;;64.85;32.28;;;;;;;7.68;100.00;99420.42;1664471;86;21106;-73
2021/11/03 03:27:25;;;;;;;67.32;35.15;;;;;;;7.68;100.00;99422.58;1685527;84;21489;-74
2021/11/03 03:29:52;;;;;;;65.37;35.55;;;;;;;7.67;100.00;99414.33;1691599;84;21049;-73
2021/11/03 03:32:18;;;;;;;68.95;36.10;;;;;;;7.66;100.00;99417.88;1662936;86;21095;-72
2021/11/03 03:34:45;;;;;;;73.02;36.55;;;;;;;7.63;100.00;99412.73;1691335;84;21068;-74
2021/11/03 03:37:12;;;;;;;74.80;35.85;;;;;;;7.63;100.00;99419.74;1692868;84;21020;-72
2021/11/03 03:39:38;;;;;;;64.95;32.60;;;;;;;7.61;100.00;99422.41;1663978;86;21073;-72
2021/11/03 03:42:16;;;;;;;74.40;37.83;;;;;;;7.62;100.00;99419.36;1691685;84;21084;-73
2021/11/03 03:44:45;;;;;;;73.00;36.30;;;;;;;7.64;100.00;99417.51;1691012;84;21091;-72
2021/11/03 03:47:11;;;;;;;69.45;34.48;;;;;;;7.64;100.00;99411.84;1691380;84;21120;-71
2021/11/03 03:49:38;;;;;;;76.60;37.38;;;;;;;7.63;100.00;99414.03;1663014;86;21125;-73
2021/11/03 03:52:08;;;;;;;82.85;38.88;;;;;;;7.64;100.00;99409.64;1691347;84;21079;-72
2021/11/03 03:54:34;;;;;;;75.60;36.33;;;;;;;7.62;100.00;99408.88;1662770;86;21096;-72
2021/11/03 03:57:02;;;;;;;73.05;37.08;;;;;;;7.63;100.00;99404.86;1691004;84;21578;-73
2021/11/03 03:59:32;;;;;;;66.60;32.70;;;;;;;7.65;100.00;99403.51;1684351;84;21125;-82
2021/11/03 04:01:58;;;;;;;83.55;40.05;;;;;;;7.64;100.00;99400.05;1693349;83;21079;-81
2021/11/03 04:04:25;;;;;;;78.12;37.63;;;;;;;7.66;100.00;99400.84;1663168;86;21150;-81
2021/11/03 04:06:52;;;;;;;73.85;37.40;;;;;;;7.66;100.00;99399.53;1691560;84;21153;-75
2021/11/03 04:09:19;;;;;;;78.95;37.40;;;;;;;7.65;100.00;99402.20;1673269;84;21638;-82
2021/11/03 04:11:47;;;;;;;71.45;34.58;;;;;;;7.65;100.00;99395.19;1684111;84;21137;-82
2021/11/03 04:14:16;;;;;;;64.15;32.33;;;;;;;7.65;100.00;99403.05;1692073;84;21072;-83
2021/11/03 04:16:43;;;;;;;79.27;35.33;;;;;;;7.66;100.00;99410.02;1691794;83;21130;-83
2021/11/03 04:19:09;;;;;;;78.70;38.20;;;;;;;7.66;100.00;99411.33;1662306;86;21116;-82
2021/11/03 04:21:38;;;;;;;80.50;37.78;;;;;;;7.65;100.00;99412.68;1679806;85;21018;-84
2021/11/03 04:24:05;;;;;;;75.95;35.98;;;;;;;7.66;100.00;99412.64;1663194;86;21067;-83
2021/11/03 04:26:36;;;;;;;74.25;36.45;;;;;;;7.67;100.00;99410.86;1665991;84;21079;-81
2021/11/03 04:29:05;;;;;;;85.17;38.60;;;;;;;7.69;100.00;99415.13;1687096;84;21334;-83
2021/11/03 04:31:33;;;;;;;72.80;35.15;;;;;;;7.73;100.00;99412.80;1691124;84;21655;-74
2021/11/03 04:34:01;;;;;;;69.17;34.50;;;;;;;7.75;100.00;99417.54;1696231;83;21064;-74
2021/11/03 04:36:28;;;;;;;75.65;36.45;;;;;;;7.73;100.00;99414.12;1703143;83;21080;-73
2021/11/03 04:38:57;;;;;;;84.67;37.73;;;;;;;7.75;100.00;99418.85;1706909;83;21067;-74
2021/11/03 04:41:24;;;;;;;79.30;38.67;;;;;;;7.73;100.00;99406.25;1663199;86;21635;-74
2021/11/03 04:43:52;;;;;;;77.42;36.88;;;;;;;7.73;100.00;99408.88;1690886;84;21077;-74
2021/11/03 04:46:19;;;;;;;71.60;35.63;;;;;;;7.73;100.00;99405.38;1690971;84;21596;-75
2021/11/03 04:48:46;;;;;;;74.53;35.80;;;;;;;7.72;100.00;99415.02;1690814;84;21036;-73
2021/11/03 04:51:16;;;;;;;64.20;32.73;;;;;;;7.73;100.00;99421.98;1679957;84;21095;-75
2021/11/03 04:53:43;;;;;;;74.32;36.48;;;;;;;7.75;100.00;99428.02;1689395;84;21180;-74
2021/11/03 04:56:14;;;;;;;62.60;33.48;;;;;;;7.75;100.00;99427.14;1689588;84;21036;-76
2021/11/03 04:58:41;;;;;;;68.72;34.20;;;;;;;7.76;100.00;99428.87;1683100;84;21670;-74
2021/11/03 05:01:08;;;;;;;75.45;34.92;;;;;;;7.73;100.00;99432.47;1699185;83;21422;-75
2021/11/03 05:03:39;;;;;;;70.57;32.90;;;;;;;7.69;100.00;99437.41;1687663;84;21071;-75
2021/11/03 05:06:10;;;;;;;;;;;;;;;7.67;100.00;99436.61;1697326;83;21157;-75
2021/11/03 05:08:38;;;;;;;74.65;32.58;;;;;;;7.68;100.00;99449.25;1704872;83;20522;-75
2021/11/03 05:11:04;;;;;;;64.10;31.02;;;;;;;7.64;100.00;99441.97;1692585;83;21129;-73
2021/11/03 05:13:32;;;;;;;72.92;34.05;;;;;;;7.64;100.00;99448.52;1702937;83;21081;-74
2021/11/03 05:16:01;;;;;;;71.10;32.70;;;;;;;7.63;100.00;99454.66;1659305;83;21180;-75
2021/11/03 05:18:28;;;;;;;66.65;33.08;;;;;;;7.65;100.00;99444.98;1679547;85;21139;-74
2021/11/03 05:20:55;;;;;;;69.37;33.33;;;;;;;7.65;100.00;99447.59;1676482;85;21141;-74
2021/11/03 05:23:25;;;;;;;67.80;35.03;;;;;;;7.68;100.00;99450.09;1682059;85;21090;-73
2021/11/03 05:25:52;;;;;;;67.22;34.30;;;;;;;7.70;100.00;99453.98;1682099;85;21616;-73
2021/11/03 05:28:19;;;;;;;71.82;35.33;;;;;;;7.71;100.00;99454.41;1682434;85;21175;-74
2021/11/03 05:30:45;;;;;;;61.83;32.60;;;;;;;7.74;100.00;99455.13;1682543;85;21106;-75
2021/11/03 05:33:12;;;;;;;65.60;31.57;;;;;;;7.78;100.00;99465.91;1682678;85;21505;-74
2021/11/03 05:35:39;;;;;;;64.25;33.38;;;;;;;7.80;100.00;99458.43;1664126;85;21113;-75
2021/11/03 05:38:06;;;;;;;72.10;34.45;;;;;;;7.81;100.00;99463.62;1682300;85;21101;-74
2021/11/03 05:40:36;;;;;;;59.15;30.90;;;;;;;7.83;100.00;99452.63;1670002;85;21048;-75
2021/11/03 05:43:06;;;;;;;63.73;31.00;;;;;;;7.87;100.00;99453.39;1658962;85;21319;-74
2021/11/03 05:45:33;;;;;;;63.42;32.42;;;;;;;7.89;100.00;99454.16;1676218;85;21592;-73
2021/11/03 05:47:59;;;;;;;54.88;26.82;;;;;;;7.92;100.00;99462.78;1671080;85;21089;-74
2021/11/03 05:50:30;;;;;;;69.17;32.55;;;;;;;7.96;100.00;99467.47;1662288;85;21045;-75
2021/11/03 05:52:56;;;;;;;;;;;;;;;7.99;100.00;99466.04;1668015;85;21108;-75
2021/11/03 05:55:23;;;;;;;67.40;32.42;;;;;;;8.02;100.00;99466.38;1668085;85;21549;-74
2021/11/03 05:57:51;;;;;;;59.03;32.85;;;;;;;8.03;100.00;99468.95;1682732;85;21081;-75
2021/11/03 06:00:28;;;;;;;58.58;31.17;;;;;;;8.08;100.00;99470.94;1679931;85;21057;-75
2021/11/03 06:02:56;;;;;;;57.35;30.75;;;;;;;8.10;100.00;99475.68;1670263;85;22039;-74
2021/11/03 06:05:22;;;;;;;59.42;31.35;;;;;;;8.13;100.00;99476.02;1649182;85;21080;-73
2021/11/03 06:07:52;;;;;;;53.10;29.82;;;;;;;8.12;100.00;99477.79;1669344;85;21455;-76
2021/11/03 06:10:29;;;;;;;52.13;28.80;;;;;;;8.12;100.00;99484.34;1660649;85;21349;-74
2021/11/03 06:12:58;;;;;;;48.63;27.73;;;;;;;8.13;100.00;99483.42;1661131;85;21454;-74
2021/11/03 06:15:27;;;;;;;45.98;25.43;;;;;;;8.14;100.00;99487.77;1718032;82;21049;-74
2021/11/03 06:17:55;;;;;;;47.85;25.05;;;;;;;8.15;100.00;99493.41;1735430;82;21561;-73
2021/11/03 06:20:22;;;;;;;42.15;23.77;;;;;;;8.14;100.00;99490.39;1739359;82;21825;-73
2021/11/03 06:22:49;;;;;;;39.75;22.05;;;;;;;8.13;100.00;99489.98;1735034;81;21493;-75
2021/11/03 06:25:17;;;;;;;41.55;21.42;;;;;;;8.12;100.00;99492.22;1702703;82;21053;-74
2021/11/03 06:27:45;;;;;;;33.20;20.25;;;;;;;8.11;100.00;99498.35;1729252;82;21095;-75
2021/11/03 06:30:16;;;;;;;35.48;21.30;;;;;;;8.10;100.00;99505.84;1731873;82;21096;-74
2021/11/03 06:49:34;;;;;;;32.33;18.77;;;;;;;8.10;100.00;99515.02;1715563;80;21614;-79
2021/11/03 06:52:01;;;;;;;31.57;18.57;;;;;;;8.10;100.00;99534.69;1700941;83;21040;-78
2021/11/03 06:54:28;;;;;;;31.40;19.55;;;;;;;8.10;100.00;99522.88;1699211;83;21508;-79
2021/11/03 06:56:54;;;;;;;29.05;18.20;;;;;;;8.09;100.00;99527.71;1721482;83;21026;-78
2021/11/03 06:59:21;;;;;;;28.62;18.52;;;;;;;8.11;100.00;99529.83;1720874;83;21495;-77
2021/11/03 07:01:47;;;;;;;29.98;18.30;;;;;;;8.11;100.00;99524.58;1721758;83;21084;-78
2021/11/03 07:04:14;;;;;;;26.65;14.90;;;;;;;8.13;100.00;99534.56;1719352;83;21507;-78
2021/11/03 07:06:41;;;;;;;28.75;18.07;;;;;;;8.16;100.00;99543.62;1718287;83;22128;-78
2021/11/03 07:09:08;;;;;;;30.35;18.67;;;;;;;8.17;100.00;99544.04;1720966;82;21060;-78
2021/11/03 07:11:35;;;;;;;25.35;16.73;;;;;;;8.20;100.00;99539.98;1721727;83;21479;-78
2021/11/03 07:14:01;;;;;;;28.02;18.42;;;;;;;8.23;100.00;99545.56;1722377;83;21040;-78
2021/11/03 07:16:29;;;;;;;32.03;19.52;;;;;;;8.28;100.00;99551.95;1719619;82;21044;-78
2021/11/03 07:18:55;;;;;;;34.30;19.07;;;;;;;8.29;100.00;99551.06;1717675;82;21148;-78
2021/11/03 07:21:22;;;;;;;31.90;17.55;;;;;;;8.29;100.00;99555.00;1721772;83;21080;-78
2021/11/03 07:23:48;;;;;;;28.32;17.55;;;;;;;8.29;100.00;99549.28;1717108;83;21116;-77
2021/11/03 07:26:16;;;;;;;30.62;20.30;;;;;;;8.31;100.00;99555.34;1703601;83;21084;-78
2021/11/03 07:28:42;;;;;;;29.05;17.02;;;;;;;8.34;100.00;99559.61;1721825;83;21245;-77
2021/11/03 07:31:10;;;;;;;30.17;18.12;;;;;;;8.34;100.00;99551.73;1717457;83;21104;-77
2021/11/03 07:33:36;;;;;;;32.20;18.87;;;;;;;8.37;100.00;99547.68;1720771;83;21503;-78
2021/11/03 07:36:03;;;;;;;32.10;17.95;;;;;;;8.38;100.00;99552.03;1707144;83;21481;-78
2021/11/03 07:38:30;;;;;;;29.75;17.98;;;;;;;8.40;100.00;99556.80;1721718;83;21037;-78
2021/11/03 07:40:57;;;;;;;30.65;18.57;;;;;;;8.42;100.00;99554.98;1721747;83;21028;-78
2021/11/03 07:43:26;;;;;;;29.72;17.95;;;;;;;8.45;100.00;99553.55;1722489;83;21076;-78
2021/11/03 07:45:54;;;;;;;27.22;17.15;;;;;;;8.49;100.00;99561.70;1725372;81;21519;-78
2021/11/03 07:48:23;;;;;;;28.35;18.57;;;;;;;8.52;100.00;99562.89;1750453;81;21120;-79
2021/11/03 07:50:57;;;;;;;29.87;18.27;;;;;;;8.55;100.00;99554.89;1749554;81;21134;-79
2021/11/03 07:53:25;;;;;;;30.88;18.37;;;;;;;8.55;100.00;99556.20;1684007;84;21611;-78
2021/11/03 07:55:57;;;;;;;26.97;17.10;;;;;;;8.58;100.00;99553.48;1702148;82;22290;-78
2021/11/03 07:58:27;;;;;;;33.33;19.10;;;;;;;8.61;100.00;99559.92;1699894;83;21136;-78
2021/11/03 08:00:56;;;;;;;36.33;20.08;;;;;;;8.69;100.00;99554.83;1670806;85;21575;-77
2021/11/03 08:03:23;;;;;;;30.50;19.10;;;;;;;8.72;100.00;99556.89;1698981;83;21135;-79
2021/11/03 08:05:51;;;;;;;29.90;20.00;;;;;;;8.72;100.00;99554.70;1709796;83;21616;-79
2021/11/03 08:08:22;;;;;;;28.47;18.62;;;;;;;8.74;100.00;99557.70;1711020;83;21101;-78
2021/11/03 08:10:53;;;;;;;33.67;19.45;;;;;;;8.77;100.00;99569.84;1744558;82;21078;-77
2021/11/03 08:13:22;;;;;;;33.18;19.65;;;;;;;8.77;100.00;99566.75;1748371;82;21134;-77
2021/11/03 08:15:51;;;;;;;30.05;19.70;;;;;;;8.71;100.00;99555.62;1738544;82;21028;-78
2021/11/03 08:18:20;;;;;;;34.38;22.77;;;;;;;8.84;100.00;99570.00;1748302;81;21545;-78
2021/11/03 08:20:46;;;;;;;29.57;19.90;;;;;;;8.86;100.00;99570.80;1748721;82;22208;-77
2021/11/03 08:23:15;;;;;;;30.68;20.55;;;;;;;8.88;100.00;99579.48;1748831;82;21499;-77
2021/11/03 08:25:42;;;;;;;34.35;21.68;;;;;;;8.90;100.00;99574.99;1748614;81;21515;-76
2021/11/03 08:28:09;;;;;;;27.93;19.85;;;;;;;8.93;100.00;99574.05;1748495;82;21127;-75
2021/11/03 08:30:36;;;;;;;35.50;22.15;;;;;;;8.98;100.00;99579.50;1748406;82;21069;-75
2021/11/03 08:33:09;;;;;;;35.00;23.38;;;;;;;9.02;100.00;99582.41;1723322;82;21087;-75
2021/11/03 08:35:36;;;;;;;35.15;21.73;;;;;;;9.07;100.00;99574.81;1748876;82;21020;-75
2021/11/03 08:38:06;;;;;;;34.73;22.73;;;;;;;9.09;100.00;99586.09;1748955;81;21478;-76
2021/11/03 08:40:34;;;;;;;;;;;;;;;9.09;100.00;99580.41;1754765;82;20989;-76
2021/11/03 08:43:04;;;;;;;38.00;23.32;;;;;;;9.13;100.00;99590.31;1746677;81;20192;-75
2021/11/03 08:45:32;;;;;;;;;;;;;;;9.12;100.00;99587.30;1720741;82;21033;-76
2021/11/03 08:47:59;;;;;;;31.17;20.32;;;;;;;9.16;100.00;99588.90;1748025;81;20231;-76
2021/11/03 08:50:29;;;;;;;39.67;23.67;;;;;;;9.17;100.00;99594.53;1733552;82;21101;-76
2021/11/03 08:52:55;;;;;;;32.65;21.55;;;;;;;9.25;100.00;99605.61;1738902;82;21692;-74
2021/11/03 08:55:22;;;;;;;38.08;23.75;;;;;;;9.25;100.00;99605.61;1749777;82;21669;-76
2021/11/03 08:57:49;;;;;;;37.42;23.42;;;;;;;9.27;100.00;99597.64;1749912;82;21052;-76
2021/11/03 09:00:20;;;;;;;29.70;20.15;;;;;;;9.30;100.00;99598.86;1740394;82;21073;-76
2021/11/03 09:02:49;;;;;;;33.92;22.48;;;;;;;9.36;100.00;99602.09;1732723;82;21105;-76
2021/11/03 09:05:16;;;;;;;38.23;23.50;;;;;;;9.41;100.00;99599.28;1737170;81;20989;-77
2021/11/03 09:07:43;;;;;;;31.02;18.85;;;;;;;9.47;100.00;99608.67;1748647;82;21060;-76
2021/11/03 09:10:13;;;;;;;32.48;22.15;;;;;;;9.50;100.00;99618.62;1749525;81;21121;-76
2021/11/03 09:12:40;;;;;;;36.50;20.80;;;;;;;9.54;100.00;99618.86;1736796;81;20985;-77
2021/11/03 09:15:11;;;;;;;31.57;20.10;;;;;;;9.59;100.00;99617.36;1720568;83;22040;-76
2021/11/03 09:17:38;;;;;;;35.43;21.35;;;;;;;9.59;100.00;99616.05;1737044;82;21068;-77
2021/11/03 09:20:06;;;;;;;36.50;21.60;;;;;;;9.66;100.00;99623.64;1749799;81;22254;-76
2021/11/03 09:22:34;;;;;;;38.23;24.27;;;;;;;9.70;100.00;99627.45;1749988;82;21679;-77
2021/11/03 09:25:00;;;;;;;35.20;21.82;;;;;;;9.72;100.00;99626.92;1749274;81;21046;-77
2021/11/03 09:27:28;;;;;;;30.62;20.35;;;;;;;9.75;100.00;99630.27;1749245;82;21047;-77
2021/11/03 09:29:55;;;;;;;32.35;19.92;;;;;;;9.78;100.00;99634.57;1729666;82;21032;-76
2021/11/03 09:32:25;;;;;;;26.85;17.27;;;;;;;9.78;100.00;99630.16;1748412;82;21056;-77
2021/11/03 09:34:54;;;;;;;29.75;17.95;;;;;;;9.82;100.00;99632.19;1744860;82;21003;-77
2021/11/03 09:37:23;;;;;;;28.55;17.23;;;;;;;9.83;100.00;99633.45;1742058;82;21019;-77
2021/11/03 09:39:52;;;;;;;26.50;16.85;;;;;;;9.85;100.00;99631.61;1746046;82;21147;-77
2021/11/03 09:42:20;;;;;;;30.48;17.42;;;;;;;9.86;100.00;99639.88;1748237;82;21016;-76
2021/11/03 09:44:48;;;;;;;29.48;18.12;;;;;;;9.88;100.00;99635.87;1746261;81;21567;-76
2021/11/03 09:47:23;;;;;;;29.52;16.75;;;;;;;9.91;100.00;99636.20;1748901;82;21061;-78
2021/11/03 09:49:58;;;;;;;29.30;17.10;;;;;;;9.91;100.00;99637.52;1749947;81;21547;-77
2021/11/03 09:52:38;;;;;;;31.17;18.52;;;;;;;9.93;100.00;99646.21;1749615;82;21102;-76
2021/11/03 09:55:20;;;;;;;28.75;17.82;;;;;;;9.93;100.00;99648.84;1750185;80;21546;-76
2021/11/03 09:57:54;;;;;;;31.30;19.27;;;;;;;9.92;100.00;99652.41;1730883;82;21086;-76
2021/11/03 10:00:52;;;;;;;27.50;16.67;;;;;;;9.97;100.00;99645.17;1730265;81;21383;-76
2021/11/03 10:03:59;;;;;;;32.55;18.37;;;;;;;10.05;100.00;99645.68;1738498;81;21070;-75
2021/11/03 10:06:46;;;;;;;31.82;18.40;;;;;;;10.11;100.00;99654.64;1749881;81;21127;-77
2021/11/03 10:09:15;;;;;;;35.83;17.87;;;;;;;10.23;100.00;99656.73;1741707;82;20985;-74
2021/11/03 10:11:48;;;;;;;24.47;15.75;;;;;;;10.34;100.00;99660.73;1759191;81;21045;-76
2021/11/03 10:14:16;;;;;;;26.23;16.87;;;;;;;10.42;100.00;99652.02;1759791;81;21003;-75
2021/11/03 10:16:48;;;;;;;25.82;15.93;;;;;;;10.46;100.00;99656.23;1749877;82;21080;-76
2021/11/03 10:19:26;;;;;;;29.63;17.17;;;;;;;10.54;100.00;99656.77;1749826;82;21048;-77
2021/11/03 10:22:02;;;;;;;27.02;16.82;;;;;;;10.58;100.00;99663.61;1749756;81;21029;-76
2021/11/03 10:24:38;;;;;;;26.48;14.95;;;;;;;10.63;100.00;99661.61;1749537;82;21088;-76
2021/11/03 10:27:15;;;;;;;27.73;16.62;;;;;;;10.66;100.00;99662.78;1745745;82;21058;-77
2021/11/03 10:29:54;;;;;;;30.35;18.48;;;;;;;10.66;100.00;99664.10;1748997;82;21077;-76
2021/11/03 10:32:38;;;;;;;29.37;16.65;;;;;;;10.69;100.00;99663.95;1738380;82;21065;-76
2021/11/03 10:42:57;;;;;;;34.10;21.55;;;;;;;10.80;100.00;99675.80;1749709;80;21074;-75
2021/11/03 10:45:37;;;;;;;39.23;23.73;;;;;;;10.71;100.00;99669.16;1741747;82;21059;-76
2021/11/03 10:48:24;;;;;;;37.08;22.30;;;;;;;10.79;100.00;99684.17;1738112;82;21094;-76
2021/11/03 10:51:17;;;;;;;38.98;22.27;;;;;;;10.81;100.00;99690.23;1728920;82;21014;-75
2021/11/03 10:53:54;;;;;;;39.60;22.62;;;;;;;10.81;100.00;99690.66;1741558;82;20997;-75
2021/11/03 10:56:31;;;;;;;37.30;22.77;;;;;;;10.83;100.00;99688.83;1749573;81;21009;-74
2021/11/03 10:59:05;;;;;;;35.30;21.55;;;;;;;10.90;100.00;99694.20;1741050;82;21001;-74
2021/11/03 11:01:45;;;;;;;41.55;25.20;;;;;;;10.96;100.00;99692.62;1686097;85;21587;-74
2021/11/03 11:04:36;;;;;;;33.70;21.40;;;;;;;11.11;100.00;99698.52;1668767;85;21052;-74
2021/11/03 11:07:30;;;;;;;39.58;23.65;;;;;;;11.31;100.00;99698.88;1725880;82;21045;-74
2021/11/03 11:10:31;;;;;;;44.35;25.27;;;;;;;11.46;100.00;99692.52;1741450;82;20989;-75
2021/11/03 11:13:01;;;;;;;40.03;23.70;;;;;;;11.63;100.00;99693.87;1744969;82;20981;-74
2021/11/03 11:15:53;;;;;;;40.23;22.80;;;;;;;11.81;100.00;99689.48;1741899;81;21798;-74
2021/11/03 11:18:36;;;;;;;41.37;22.70;;;;;;;11.99;100.00;99696.15;1683304;85;21648;-74
2021/11/03 11:21:41;;;;;;;37.85;21.68;;;;;;;12.08;100.00;99699.65;1682034;85;21037;-74
2021/11/03 11:24:33;;;;;;;31.90;18.32;;;;;;;12.12;100.00;99709.09;1734848;82;21108;-74
2021/11/03 11:30:22;;;;;;;42.03;23.87;;;;;;;12.09;100.00;99718.50;1804788;77;28734;-75
2021/11/03 11:33:07;;;;;;;39.13;22.20;;;;;;;11.95;100.00;99729.27;1775981;78;20965;-75
2021/11/03 11:36:18;;;;;;;28.57;17.73;;;;;;;11.91;100.00;99725.06;1774760;78;21139;-75
2021/11/03 11:39:07;;;;;;;36.17;22.10;;;;;;;11.86;100.00;99724.41;1784745;80;21634;-74
2021/11/03 11:41:58;;;;;;;36.85;21.33;;;;;;;11.78;100.00;99722.62;1755143;80;21037;-74
2021/11/03 11:44:39;;;;;;;37.85;21.95;;;;;;;11.74;100.00;99727.65;1775293;80;21009;-75
2021/11/03 11:47:09;;;;;;;42.50;19.87;;;;;;;11.77;100.00;99730.12;1759609;80;21041;-75
2021/11/03 11:49:39;;;;;;;46.65;23.22;;;;;;;11.92;100.00;99725.94;1753730;81;21819;-74
2021/11/03 11:52:17;;;;;;;46.03;20.60;;;;;;;12.48;100.00;99727.98;1754201;81;21531;-75
2021/11/03 11:55:17;;;;;;;36.95;21.95;;;;;;;13.16;100.00;99727.46;1760021;80;21107;-76
2021/11/03 11:58:09;;;;;;;51.77;24.95;;;;;;;13.91;100.00;99727.73;1758841;80;21028;-75
2021/11/03 12:00:38;;;;;;;35.48;23.05;;;;;;;14.64;100.00;99727.05;1732044;81;22266;-75